createdAt,value
2023-02-28T00:00:11.234Z,-2.58
2023-02-28T00:03:14.068Z,-2.51
2023-02-28T00:06:17.406Z,-2.41
2023-02-28T00:09:19.198Z,-2.49
2023-02-28T00:12:21.201Z,-2.49
2023-02-28T00:15:24.049Z,-2.36
2023-02-28T00:18:25.825Z,-2.41
2023-02-28T00:21:29.110Z,-2.48
2023-02-28T00:24:31.174Z,-2.50
2023-02-28T00:27:32.847Z,-2.56
2023-02-28T00:30:41.303Z,-2.56
2023-02-28T00:33:43.378Z,-2.61
2023-02-28T00:36:49.856Z,-2.65
2023-02-28T00:39:51.744Z,-2.74
2023-02-28T00:42:53.924Z,-2.76
2023-02-28T00:45:55.683Z,-2.79
2023-02-28T00:48:57.381Z,-2.74
2023-02-28T00:52:00.488Z,-2.84
2023-02-28T00:55:02.492Z,-2.92
2023-02-28T00:58:05.442Z,-2.94
2023-02-28T01:01:07.627Z,-2.89
2023-02-28T01:04:09.819Z,-2.85
2023-02-28T01:07:12.964Z,-2.85
2023-02-28T01:10:15.116Z,-2.83
2023-02-28T01:13:17.368Z,-2.97
2023-02-28T01:16:19.170Z,-3.03
2023-02-28T01:19:21.399Z,-2.99
2023-02-28T01:22:24.533Z,-3.01
2023-02-28T01:25:26.446Z,-3.01
2023-02-28T01:28:28.368Z,-3.09
2023-02-28T01:31:32.612Z,-3.06
2023-02-28T01:34:34.505Z,-3.12
2023-02-28T01:37:37.737Z,-3.08
2023-02-28T01:40:39.560Z,-3.03
2023-02-28T01:43:59.269Z,-3.10
2023-02-28T01:47:00.968Z,-3.19
2023-02-28T01:50:10.202Z,-3.24
2023-02-28T01:53:17.683Z,-3.25
2023-02-28T01:56:23.078Z,-3.31
2023-02-28T01:59:27.839Z,-3.31
2023-02-28T02:02:31.827Z,-3.23
2023-02-28T02:50:24.647Z,-3.42
2023-02-28T03:21:48.887Z,-3.71
2023-02-28T03:26:15.770Z,-3.58
2023-02-28T03:29:51.401Z,-3.50
2023-02-28T03:33:14.975Z,-3.61
2023-02-28T03:36:54.982Z,-3.62
2023-02-28T03:40:37.893Z,-3.69
2023-02-28T03:48:49.217Z,-3.75
2023-02-28T03:52:45.839Z,-3.84
2023-02-28T03:57:18.869Z,-3.68
2023-02-28T04:01:28.454Z,-3.77
2023-02-28T04:05:01.691Z,-3.73
2023-02-28T04:08:14.604Z,-3.79
2023-02-28T04:11:28.666Z,-3.67
2023-02-28T04:15:26.672Z,-3.64
2023-02-28T04:19:35.256Z,-3.60
2023-02-28T04:22:50.254Z,-3.61
2023-02-28T04:26:11.366Z,-3.72
2023-02-28T04:38:37.555Z,-3.82
2023-02-28T04:41:44.425Z,-3.81
2023-02-28T04:49:35.791Z,-3.87
2023-02-28T04:52:48.154Z,-3.88
2023-02-28T05:01:21.391Z,-3.94
2023-02-28T05:05:11.345Z,-3.87
2023-02-28T05:09:42.344Z,-3.89
2023-02-28T05:23:39.893Z,-3.79
2023-02-28T05:33:10.543Z,-3.69
2023-02-28T05:45:09.073Z,-3.56
2023-02-28T05:48:11.795Z,-3.46
2023-02-28T05:51:13.473Z,-3.57
2023-02-28T05:54:15.278Z,-3.58
2023-02-28T05:57:24.445Z,-3.56
2023-02-28T06:00:28.736Z,-3.57
2023-02-28T06:03:30.646Z,-3.45
2023-02-28T06:06:37.061Z,-3.44
2023-02-28T06:09:39.439Z,-3.53
2023-02-28T06:12:42.465Z,-3.24
2023-02-28T06:15:45.576Z,-3.15
2023-02-28T06:18:47.464Z,-2.86
2023-02-28T06:21:53.231Z,-2.71
2023-02-28T06:24:55.716Z,-2.91
2023-02-28T06:27:57.823Z,-2.83
2023-02-28T06:31:00.815Z,-2.93
2023-02-28T06:34:02.587Z,-2.41
2023-02-28T06:37:04.569Z,-2.62
2023-02-28T06:40:07.885Z,-2.60
2023-02-28T06:43:09.614Z,-2.52
2023-02-28T06:46:15.184Z,-2.34
2023-02-28T06:49:18.335Z,-2.01
2023-02-28T06:52:23.266Z,-1.73
2023-02-28T06:55:25.022Z,-1.58
2023-02-28T06:58:26.789Z,-1.48
2023-02-28T07:01:30.449Z,-1.19
2023-02-28T07:04:32.922Z,-0.98
2023-02-28T07:07:35.158Z,-0.89
2023-02-28T07:10:38.429Z,-0.83
2023-02-28T07:13:40.106Z,-0.77
2023-02-28T07:16:43.244Z,-0.63
2023-02-28T07:19:45.066Z,-0.56
2023-02-28T07:22:46.827Z,-0.51
2023-02-28T07:25:49.985Z,-0.44
2023-02-28T07:28:51.757Z,-0.36
2023-02-28T07:31:54.952Z,-0.24
2023-02-28T07:34:56.843Z,-0.20
2023-02-28T07:37:59.499Z,-0.18
2023-02-28T07:41:01.246Z,-0.07
2023-02-28T07:44:04.155Z,-0.09
2023-02-28T07:47:08.080Z,0.19
2023-02-28T07:50:12.419Z,0.36
2023-02-28T07:53:14.035Z,0.50
2023-02-28T07:56:15.801Z,0.33
2023-02-28T07:59:17.477Z,0.44
2023-02-28T08:02:20.626Z,0.23
2023-02-28T08:05:23.034Z,0.35
2023-02-28T08:08:24.963Z,0.38
2023-02-28T08:11:26.689Z,0.32
2023-02-28T08:14:28.414Z,0.39
2023-02-28T08:17:33.694Z,0.53
2023-02-28T08:20:36.696Z,0.56
2023-02-28T08:23:39.700Z,0.41
2023-02-28T08:26:41.690Z,0.47
2023-02-28T08:29:43.301Z,0.40
2023-02-28T08:32:46.371Z,0.36
2023-02-28T08:35:48.116Z,0.58
2023-02-28T08:38:49.889Z,0.41
2023-02-28T08:41:59.093Z,0.50
2023-02-28T08:45:08.405Z,0.53
2023-02-28T08:48:11.538Z,0.61
2023-02-28T08:51:17.216Z,0.74
2023-02-28T08:54:20.414Z,0.72
2023-02-28T08:57:22.345Z,0.79
2023-02-28T09:00:24.481Z,0.99
2023-02-28T09:03:30.406Z,0.95
2023-02-28T09:06:33.056Z,0.96
2023-02-28T09:09:35.018Z,1.10
2023-02-28T09:12:36.928Z,1.22
2023-02-28T09:15:39.244Z,1.12
2023-02-28T09:18:42.414Z,1.33
2023-02-28T09:21:44.085Z,1.47
2023-02-28T09:24:45.972Z,1.55
2023-02-28T09:27:47.704Z,1.73
2023-02-28T09:30:53.370Z,1.67
2023-02-28T09:33:58.298Z,1.79
2023-02-28T09:37:00.098Z,1.96
2023-02-28T09:40:01.896Z,1.93
2023-02-28T09:43:03.977Z,2.16
2023-02-28T09:46:15.501Z,2.29
2023-02-28T09:49:24.021Z,2.55
2023-02-28T09:52:30.058Z,2.39
2023-02-28T09:55:46.196Z,2.38
2023-02-28T09:58:53.030Z,2.37
2023-02-28T10:02:01.523Z,2.17
2023-02-28T10:05:08.149Z,2.45
2023-02-28T10:08:15.417Z,2.43
2023-02-28T10:11:19.219Z,2.25
2023-02-28T10:14:23.372Z,2.24
2023-02-28T10:17:49.343Z,2.42
2023-02-28T10:20:59.769Z,2.60
2023-02-28T10:24:06.124Z,2.70
2023-02-28T10:27:15.205Z,3.01
2023-02-28T10:30:17.514Z,2.66
2023-02-28T10:33:24.009Z,3.11
2023-02-28T10:36:27.946Z,3.13
2023-02-28T10:39:41.892Z,2.85
2023-02-28T10:42:56.608Z,3.02
2023-02-28T10:46:04.981Z,3.64
2023-02-28T10:49:13.582Z,3.68
2023-02-28T10:52:35.182Z,3.46
2023-02-28T10:55:37.803Z,3.77
2023-02-28T10:58:55.146Z,3.94
2023-02-28T11:01:57.647Z,4.13
2023-02-28T11:04:59.615Z,3.74
2023-02-28T11:08:12.239Z,4.01
2023-02-28T11:11:14.657Z,3.69
2023-02-28T11:14:21.517Z,4.35
2023-02-28T11:17:26.113Z,3.52
2023-02-28T11:20:31.129Z,3.59
2023-02-28T11:23:38.176Z,4.15
2023-02-28T11:26:42.915Z,3.74
2023-02-28T11:29:48.380Z,3.61
2023-02-28T11:32:51.207Z,3.91
2023-02-28T11:35:56.745Z,3.82
2023-02-28T11:39:05.240Z,3.85
2023-02-28T11:42:24.544Z,3.67
2023-02-28T11:45:44.792Z,4.15
2023-02-28T11:48:56.559Z,3.75
2023-02-28T11:52:01.974Z,4.28
2023-02-28T11:55:15.831Z,4.50
2023-02-28T11:58:32.450Z,4.53
2023-02-28T12:01:42.368Z,5.22
2023-02-28T12:04:56.938Z,4.86
2023-02-28T12:08:10.457Z,5.77
2023-02-28T12:11:25.373Z,5.11
2023-02-28T12:14:48.219Z,5.05
2023-02-28T12:17:59.398Z,5.55
2023-02-28T12:21:05.403Z,5.20
2023-02-28T12:24:25.622Z,5.03
2023-02-28T12:27:32.689Z,6.25
2023-02-28T12:30:37.929Z,6.04
2023-02-28T12:33:46.010Z,5.41
2023-02-28T12:36:50.442Z,5.44
2023-02-28T12:39:57.660Z,5.50
2023-02-28T12:43:04.870Z,4.82
2023-02-28T12:46:13.664Z,5.30
2023-02-28T12:49:24.384Z,5.96
2023-02-28T12:52:36.405Z,6.78
2023-02-28T12:55:44.065Z,6.63
2023-02-28T12:58:51.184Z,6.68
2023-02-28T13:02:03.898Z,5.77
2023-02-28T13:05:41.757Z,5.35
2023-02-28T13:09:09.173Z,5.17
2023-02-28T13:12:15.632Z,5.82
2023-02-28T13:15:25.387Z,6.51
2023-02-28T13:18:33.536Z,6.16
2023-02-28T13:21:44.397Z,5.74
2023-02-28T13:24:48.420Z,6.63
2023-02-28T13:27:55.448Z,6.95
2023-02-28T13:31:08.080Z,7.20
2023-02-28T13:34:16.261Z,7.23
2023-02-28T13:37:44.852Z,7.65
2023-02-28T13:40:46.791Z,6.74
2023-02-28T13:44:03.089Z,6.49
2023-02-28T13:47:25.761Z,7.39
2023-02-28T13:50:38.678Z,7.91
2023-02-28T13:54:01.874Z,7.81
2023-02-28T13:57:23.697Z,7.58
2023-02-28T14:00:42.652Z,7.93
2023-02-28T14:04:08.388Z,8.76
2023-02-28T14:07:17.310Z,8.94
2023-02-28T14:10:27.446Z,8.01
2023-02-28T14:13:48.570Z,8.56
2023-02-28T14:16:51.133Z,6.81
2023-02-28T14:19:54.678Z,8.37
2023-02-28T14:23:07.650Z,8.05
2023-02-28T14:26:22.283Z,8.80
2023-02-28T14:29:44.535Z,7.51
2023-02-28T14:32:51.854Z,7.54
2023-02-28T14:36:08.195Z,7.80
2023-02-28T14:39:15.198Z,6.36
2023-02-28T14:42:29.752Z,7.78
2023-02-28T14:45:33.363Z,6.28
2023-02-28T14:48:36.454Z,6.94
2023-02-28T14:51:39.591Z,7.06
2023-02-28T14:54:43.229Z,8.07
2023-02-28T14:57:52.970Z,8.23
2023-02-28T15:00:57.007Z,7.59
2023-02-28T15:04:02.434Z,6.93
2023-02-28T15:07:14.966Z,7.00
2023-02-28T15:10:19.876Z,7.30
2023-02-28T15:13:22.083Z,6.62
2023-02-28T15:16:26.807Z,6.52
2023-02-28T15:19:31.592Z,6.59
2023-02-28T15:22:38.787Z,6.41
2023-02-28T15:25:42.840Z,6.16
2023-02-28T15:28:45.108Z,6.55
2023-02-28T15:31:57.503Z,6.48
2023-02-28T15:35:19.335Z,5.78
2023-02-28T15:38:26.108Z,5.85
2023-02-28T15:41:29.885Z,5.40
2023-02-28T15:44:37.979Z,5.40
2023-02-28T15:47:40.551Z,5.30
2023-02-28T15:50:42.713Z,5.49
2023-02-28T15:53:49.528Z,5.34
2023-02-28T15:56:53.828Z,5.02
2023-02-28T15:59:59.486Z,5.02
2023-02-28T16:03:01.669Z,5.04
2023-02-28T16:06:25.232Z,5.05
2023-02-28T16:09:28.643Z,5.13
2023-02-28T16:12:33.258Z,4.94
2023-02-28T16:15:43.200Z,5.11
2023-02-28T16:18:44.961Z,4.92
2023-02-28T16:21:47.194Z,4.90
2023-02-28T16:24:50.511Z,4.96
2023-02-28T16:27:54.938Z,5.03
2023-02-28T16:30:56.766Z,4.84
2023-02-28T16:33:59.013Z,4.79
2023-02-28T16:37:00.990Z,4.70
2023-02-28T16:40:04.932Z,4.66
2023-02-28T16:43:14.191Z,4.52
2023-02-28T16:46:17.517Z,4.48
2023-02-28T16:49:19.515Z,4.34
2023-02-28T16:52:21.323Z,4.29
2023-02-28T16:55:25.903Z,4.20
2023-02-28T16:58:29.499Z,4.06
2023-02-28T17:01:32.194Z,3.99
2023-02-28T17:04:34.235Z,3.94
2023-02-28T17:07:36.076Z,3.84
2023-02-28T17:10:39.106Z,3.66
2023-02-28T17:13:40.974Z,3.56
2023-02-28T17:16:43.482Z,3.41
2023-02-28T17:19:45.307Z,3.19
2023-02-28T17:22:47.213Z,3.03
2023-02-28T17:25:58.085Z,2.89
2023-02-28T17:29:00.204Z,2.87
2023-02-28T17:32:12.213Z,2.70
2023-02-28T17:35:19.325Z,2.60
2023-02-28T17:38:23.716Z,2.55
2023-02-28T17:41:31.434Z,2.25
2023-02-28T17:44:33.787Z,2.11
2023-02-28T17:47:35.638Z,1.90
2023-02-28T17:50:37.594Z,1.77
2023-02-28T17:53:39.452Z,1.70
2023-02-28T17:56:44.103Z,1.56
2023-02-28T17:59:46.123Z,1.55
2023-02-28T18:02:51.039Z,1.50
2023-02-28T18:05:52.798Z,1.40
2023-02-28T18:08:55.232Z,1.28
2023-02-28T18:11:58.353Z,1.18
2023-02-28T18:15:02.756Z,1.13
